Nucla, Colorado
Current Conditions -  °F | °C
As of 2:35 AM on Tuesday 21 Oct 2014 (Local Time) from KAIB Reporting Station
Broken Clouds Broken Clouds  
Wind Chill: 10°   Ceiling: 11000
Heat Index: 10°   Visibility: 10mi
Dew Point:   Wind: 8mph
Humidity: 58%   Direction: 100°E
Pressure: 30.17"   Gusts: NA
Location:  38.27°N, 108.55°W
Report Text: KAIB 210835Z AUTO 10007KT 10SM BKN110 10/02 A3017 RMK AO2
Loading
Personal Weather Stations






























Interactive Weather Map
Tropical Storm Tracking
New forecast layout! Learn more

10-Day Weather Forecast

Advertisements
Track Severe Weather on mobile